Time;durP1;ratioP1;P1;durP2;ratioP2;P2;SDS_P1;SDS_P2;PMS_P1;PMS_P2;Temp;Humidity;BMP_temperature;BMP_pressure;BME280_temperature;BME280_humidity;BME280_pressure;Samples;Min_cycle;Max_cycle;Signal;HPM_P1;HPM_P2
2022/10/23 00:01:38;;;;;;;5.18;1.70;;;;;;;;;;5067661;28;20076;-70
2022/10/23 00:04:05;;;;;;;5.57;2.33;;;;;;;;;;5075544;28;20069;-69
2022/10/23 00:06:33;;;;;;;3.53;1.77;;;;;;;;;;5076056;28;20048;-69
2022/10/23 00:08:59;;;;;;;13.98;2.75;;;;;;;;;;5074651;28;20043;-69
2022/10/23 00:11:26;;;;;;;4.70;2.00;;;;;;;;;;5073257;28;20446;-69
2022/10/23 00:13:54;;;;;;;3.75;1.67;;;;;;;;;;5074043;28;20582;-69
2022/10/23 00:16:20;;;;;;;6.25;2.10;;;;;;;;;;5074219;28;20041;-69
2022/10/23 00:18:46;;;;;;;4.53;2.13;;;;;;;;;;5074272;28;20052;-69
2022/10/23 00:21:14;;;;;;;4.43;2.17;;;;;;;;;;5074878;28;20045;-69
2022/10/23 00:23:40;;;;;;;5.38;1.83;;;;;;;;;;5057632;28;20353;-69
2022/10/23 00:26:07;;;;;;;6.63;1.92;;;;;;;;;;5075652;28;20854;-69
2022/10/23 00:28:33;;;;;;;3.85;2.15;;;;;;;;;;5060872;28;20055;-69
2022/10/23 00:31:09;;;;;;;3.90;2.33;;;;;;;;;;5077011;28;20048;-69
2022/10/23 00:33:35;;;;;;;5.03;1.98;;;;;;;;;;5060317;28;20552;-69
2022/10/23 00:36:03;;;;;;;4.20;1.63;;;;;;;;;;5075485;28;20055;-70
2022/10/23 00:38:29;;;;;;;3.53;2.03;;;;;;;;;;5077573;28;20037;-69
2022/10/23 00:40:55;;;;;;;2.90;1.70;;;;;;;;;;5078456;28;20037;-70
2022/10/23 00:43:23;;;;;;;4.72;2.88;;;;;;;;;;5075305;28;20122;-69
2022/10/23 00:45:49;;;;;;;5.63;3.08;;;;;;;;;;5076835;28;20570;-69
2022/10/23 00:48:16;;;;;;;4.28;2.28;;;;;;;;;;5077148;28;20045;-69
2022/10/23 00:50:42;;;;;;;4.60;2.08;;;;;;;;;;5078122;28;20044;-69
2022/10/23 00:53:09;;;;;;;2.47;1.50;;;;;;;;;;5075794;28;20037;-69
2022/10/23 00:55:37;;;;;;;7.72;2.45;;;;;;;;;;5068642;28;20506;-69
2022/10/23 00:58:03;;;;;;;6.38;2.67;;;;;;;;;;5073539;28;20076;-69
2022/10/23 01:00:47;;;;;;;4.70;2.58;;;;;;;;;;5077309;28;20041;-69
2022/10/23 01:03:15;;;;;;;3.45;1.70;;;;;;;;;;5076008;28;20493;-69
2022/10/23 01:05:45;;;;;;;5.22;2.05;;;;;;;;;;5075254;28;20051;-69
2022/10/23 01:08:30;;;;;;;8.52;2.22;;;;;;;;;;5066456;28;20040;-69
2022/10/23 01:11:10;;;;;;;2.65;1.80;;;;;;;;;;5072276;28;20047;-69
2022/10/23 01:13:45;;;;;;;4.03;1.83;;;;;;;;;;5077234;28;20518;-69
2022/10/23 01:16:16;;;;;;;2.90;1.63;;;;;;;;;;5073929;28;20487;-69
2022/10/23 01:18:48;;;;;;;6.38;1.73;;;;;;;;;;5075653;28;20045;-69
2022/10/23 01:21:28;;;;;;;5.53;1.80;;;;;;;;;;5067877;28;20067;-69
2022/10/23 01:24:20;;;;;;;4.60;2.25;;;;;;;;;;5077417;28;20525;-69
2022/10/23 01:26:52;;;;;;;3.92;1.60;;;;;;;;;;5035702;28;20099;-69
2022/10/23 01:29:24;;;;;;;2.80;1.67;;;;;;;;;;5059928;28;20045;-69
2022/10/23 01:31:54;;;;;;;6.45;2.08;;;;;;;;;;5065727;28;20045;-69
2022/10/23 01:34:22;;;;;;;3.42;1.50;;;;;;;;;;5076159;28;20040;-69
2022/10/23 01:36:50;;;;;;;6.90;2.65;;;;;;;;;;5075531;28;20056;-69
2022/10/23 01:39:22;;;;;;;3.47;1.75;;;;;;;;;;5066557;28;20037;-69
2022/10/23 01:41:59;;;;;;;5.13;1.65;;;;;;;;;;5057768;28;20043;-69
2022/10/23 01:44:28;;;;;;;7.50;2.15;;;;;;;;;;5078433;28;20058;-69
2022/10/23 01:46:56;;;;;;;2.97;1.60;;;;;;;;;;5077316;28;20562;-69
2022/10/23 01:49:23;;;;;;;3.53;2.08;;;;;;;;;;5058443;28;20599;-70
2022/10/23 01:51:52;;;;;;;2.63;1.63;;;;;;;;;;5052281;28;20128;-69
2022/10/23 01:54:19;;;;;;;6.15;1.98;;;;;;;;;;5076148;28;21230;-69
2022/10/23 01:56:47;;;;;;;3.92;1.52;;;;;;;;;;5059124;28;20040;-69
2022/10/23 01:59:16;;;;;;;4.55;2.47;;;;;;;;;;5076315;28;20051;-69
2022/10/23 02:01:44;;;;;;;3.63;1.83;;;;;;;;;;5068544;28;20040;-69
2022/10/23 02:04:12;;;;;;;4.55;2.67;;;;;;;;;;5053079;28;20048;-69
2022/10/23 02:06:38;;;;;;;4.38;1.88;;;;;;;;;;5074066;28;20059;-69
2022/10/23 02:09:05;;;;;;;5.10;1.70;;;;;;;;;;5056100;28;20067;-69
2022/10/23 02:11:33;;;;;;;3.58;1.60;;;;;;;;;;5051552;28;20040;-69
2022/10/23 02:14:01;;;;;;;7.75;2.65;;;;;;;;;;5074465;28;20037;-69
2022/10/23 02:16:37;;;;;;;5.85;2.42;;;;;;;;;;5054471;28;20049;-69
2022/10/23 02:19:15;;;;;;;4.57;1.48;;;;;;;;;;5067147;28;20045;-70
2022/10/23 02:21:54;;;;;;;3.85;2.00;;;;;;;;;;5050478;28;20060;-69
2022/10/23 02:24:26;;;;;;;4.78;2.20;;;;;;;;;;5056963;28;20565;-69
2022/10/23 02:26:55;;;;;;;3.92;1.70;;;;;;;;;;5052083;28;20123;-69
2022/10/23 02:29:33;;;;;;;6.53;1.83;;;;;;;;;;5066448;28;20119;-69
2022/10/23 02:32:00;;;;;;;5.18;2.35;;;;;;;;;;5074500;28;20056;-69
2022/10/23 02:34:26;;;;;;;4.60;1.88;;;;;;;;;;5056052;28;20040;-69
2022/10/23 02:36:52;;;;;;;4.22;1.70;;;;;;;;;;5076124;28;20506;-69
2022/10/23 02:39:19;;;;;;;2.65;1.90;;;;;;;;;;5076008;28;20048;-69
2022/10/23 02:41:55;;;;;;;7.75;2.35;;;;;;;;;;5076369;28;20122;-69
2022/10/23 02:44:24;;;;;;;3.40;1.63;;;;;;;;;;5053960;28;20052;-69
2022/10/23 02:46:55;;;;;;;5.20;2.58;;;;;;;;;;5071391;28;20041;-69
2022/10/23 02:49:27;;;;;;;5.00;1.98;;;;;;;;;;5075603;28;20048;-69
2022/10/23 02:52:10;;;;;;;3.63;2.30;;;;;;;;;;5075266;28;20037;-69
2022/10/23 02:54:36;;;;;;;4.55;1.90;;;;;;;;;;5074475;28;20045;-69
2022/10/23 02:57:05;;;;;;;4.40;2.00;;;;;;;;;;5074378;28;20048;-69
2022/10/23 02:59:36;;;;;;;3.90;2.47;;;;;;;;;;5074686;28;20102;-69
2022/10/23 03:02:17;;;;;;;3.85;2.20;;;;;;;;;;5065499;28;20029;-69
2022/10/23 03:04:43;;;;;;;3.33;1.90;;;;;;;;;;5069167;28;20044;-69
2022/10/23 03:07:13;;;;;;;6.45;1.80;;;;;;;;;;5050482;28;20059;-69
2022/10/23 03:09:39;;;;;;;4.35;2.00;;;;;;;;;;5057520;28;20033;-69
2022/10/23 03:12:05;;;;;;;4.15;1.90;;;;;;;;;;5076203;28;20194;-69
2022/10/23 03:14:31;;;;;;;4.10;1.75;;;;;;;;;;5056989;28;20087;-69
2022/10/23 03:16:57;;;;;;;3.42;2.15;;;;;;;;;;5057195;28;20072;-70
2022/10/23 03:19:23;;;;;;;7.20;2.67;;;;;;;;;;5076955;28;20043;-69
2022/10/23 03:21:50;;;;;;;2.72;1.60;;;;;;;;;;5076017;28;20051;-70
2022/10/23 03:24:16;;;;;;;4.70;2.38;;;;;;;;;;5042922;28;20044;-70
2022/10/23 03:26:42;;;;;;;10.95;2.13;;;;;;;;;;5074791;28;20105;-69
2022/10/23 03:29:08;;;;;;;3.70;1.83;;;;;;;;;;5073347;28;20049;-69
2022/10/23 03:31:34;;;;;;;3.53;2.08;;;;;;;;;;5072961;28;20072;-69
2022/10/23 03:34:00;;;;;;;4.47;2.30;;;;;;;;;;5073450;28;20041;-69
2022/10/23 03:36:27;;;;;;;4.40;1.70;;;;;;;;;;5048692;28;20047;-68
2022/10/23 03:38:53;;;;;;;5.50;2.50;;;;;;;;;;5073134;28;20048;-69
2022/10/23 03:41:19;;;;;;;5.55;2.75;;;;;;;;;;5070303;28;20029;-69
2022/10/23 03:43:45;;;;;;;6.50;2.53;;;;;;;;;;5050344;28;20059;-69
2022/10/23 03:46:11;;;;;;;6.90;2.40;;;;;;;;;;5047033;28;20100;-69
2022/10/23 03:48:38;;;;;;;5.53;2.25;;;;;;;;;;5049361;28;20036;-69
2022/10/23 03:51:05;;;;;;;3.80;2.25;;;;;;;;;;5072246;28;20134;-69
2022/10/23 03:53:31;;;;;;;6.35;2.65;;;;;;;;;;5052654;28;20046;-69
2022/10/23 03:55:57;;;;;;;4.97;2.92;;;;;;;;;;5045254;28;20375;-69
2022/10/23 03:58:23;;;;;;;3.97;2.22;;;;;;;;;;5071958;28;20051;-68
2022/10/23 04:00:49;;;;;;;3.50;2.28;;;;;;;;;;5071711;28;20051;-69
2022/10/23 04:03:15;;;;;;;8.73;2.45;;;;;;;;;;5072859;28;20168;-69
2022/10/23 04:05:42;;;;;;;7.53;2.78;;;;;;;;;;5073297;28;20601;-69
2022/10/23 04:08:09;;;;;;;7.93;2.75;;;;;;;;;;5052512;28;20041;-69
2022/10/23 04:10:35;;;;;;;3.40;2.63;;;;;;;;;;5048198;28;20122;-69
2022/10/23 04:13:01;;;;;;;3.75;2.20;;;;;;;;;;5072651;28;20104;-69
2022/10/23 04:15:27;;;;;;;8.07;2.78;;;;;;;;;;5057674;28;20535;-70
2022/10/23 04:17:53;;;;;;;5.72;2.65;;;;;;;;;;5075659;28;20510;-68
2022/10/23 04:20:19;;;;;;;5.38;2.20;;;;;;;;;;5050440;28;20036;-69
2022/10/23 04:22:45;;;;;;;7.40;2.00;;;;;;;;;;5075008;28;20068;-70
2022/10/23 04:25:12;;;;;;;6.25;2.70;;;;;;;;;;5076339;28;20094;-69
2022/10/23 04:27:38;;;;;;;7.65;3.55;;;;;;;;;;5053596;28;20033;-70
2022/10/23 04:30:05;;;;;;;6.72;2.35;;;;;;;;;;5049011;28;20045;-69
2022/10/23 04:32:31;;;;;;;6.97;2.35;;;;;;;;;;5060922;28;20060;-70
2022/10/23 04:34:57;;;;;;;4.47;2.25;;;;;;;;;;5054883;28;20045;-69
2022/10/23 04:37:23;;;;;;;19.30;3.38;;;;;;;;;;5054314;28;20079;-69
2022/10/23 04:39:49;;;;;;;4.97;2.20;;;;;;;;;;5033045;28;20128;-69
2022/10/23 04:42:15;;;;;;;5.05;2.80;;;;;;;;;;5033969;28;20916;-70
2022/10/23 04:44:41;;;;;;;6.22;2.55;;;;;;;;;;5049695;28;20160;-69
2022/10/23 04:47:07;;;;;;;4.35;2.85;;;;;;;;;;5025897;28;20788;-69
2022/10/23 04:49:33;;;;;;;5.60;2.90;;;;;;;;;;5035870;28;20045;-69
2022/10/23 04:51:59;;;;;;;7.05;3.03;;;;;;;;;;5054043;28;20033;-70
2022/10/23 04:54:26;;;;;;;4.95;2.35;;;;;;;;;;5030935;28;20049;-69
2022/10/23 04:56:52;;;;;;;6.63;2.65;;;;;;;;;;5053650;28;20080;-69
2022/10/23 04:59:18;;;;;;;8.55;2.72;;;;;;;;;;5051637;28;20152;-69
2022/10/23 05:01:44;;;;;;;6.60;2.40;;;;;;;;;;5053320;28;20048;-69
2022/10/23 05:04:10;;;;;;;6.93;3.10;;;;;;;;;;5053085;28;20386;-69
2022/10/23 05:06:36;;;;;;;4.22;2.25;;;;;;;;;;5052311;28;20048;-69
2022/10/23 05:09:03;;;;;;;6.47;3.00;;;;;;;;;;5058857;28;20041;-69
2022/10/23 05:11:29;;;;;;;3.72;2.78;;;;;;;;;;5058095;28;20850;-69
2022/10/23 05:13:55;;;;;;;6.60;2.20;;;;;;;;;;5040512;28;20049;-69
2022/10/23 05:16:31;;;;;;;13.13;2.45;;;;;;;;;;5056272;28;21276;-69
2022/10/23 05:18:58;;;;;;;8.18;3.33;;;;;;;;;;5058736;28;20041;-69
2022/10/23 05:21:26;;;;;;;3.40;2.10;;;;;;;;;;5055551;28;21317;-69
2022/10/23 05:23:53;;;;;;;4.15;2.60;;;;;;;;;;5057940;28;20523;-69
2022/10/23 05:26:21;;;;;;;10.32;3.03;;;;;;;;;;5057454;28;20040;-69
2022/10/23 05:28:47;;;;;;;6.75;3.03;;;;;;;;;;5058804;28;20596;-69
2022/10/23 05:31:14;;;;;;;6.13;2.75;;;;;;;;;;5061221;28;20528;-69
2022/10/23 05:33:41;;;;;;;9.73;3.47;;;;;;;;;;5078696;28;20040;-69
2022/10/23 05:36:08;;;;;;;4.15;2.17;;;;;;;;;;5075184;28;20909;-69
2022/10/23 05:38:35;;;;;;;5.28;2.78;;;;;;;;;;5076677;28;20033;-69
2022/10/23 05:41:02;;;;;;;4.47;2.67;;;;;;;;;;5076261;28;20091;-69
2022/10/23 05:43:30;;;;;;;5.35;2.83;;;;;;;;;;5075788;28;20044;-69
2022/10/23 05:45:56;;;;;;;7.57;2.67;;;;;;;;;;5074025;28;20051;-69
2022/10/23 05:48:22;;;;;;;6.97;3.45;;;;;;;;;;5075740;28;20037;-69
2022/10/23 05:50:48;;;;;;;5.72;2.92;;;;;;;;;;5076848;28;20041;-69
2022/10/23 05:53:14;;;;;;;5.43;2.63;;;;;;;;;;5077529;28;20052;-69
2022/10/23 05:55:40;;;;;;;7.38;2.97;;;;;;;;;;5074178;28;20044;-69
2022/10/23 05:58:07;;;;;;;6.45;2.90;;;;;;;;;;5073932;28;20037;-69
2022/10/23 06:00:33;;;;;;;6.07;2.83;;;;;;;;;;5074203;28;20475;-69
2022/10/23 06:03:00;;;;;;;5.28;3.40;;;;;;;;;;5076789;28;20036;-70
2022/10/23 06:05:26;;;;;;;7.05;2.80;;;;;;;;;;5077876;28;20052;-69
2022/10/23 06:07:56;;;;;;;7.95;3.10;;;;;;;;;;5066868;28;20553;-69
2022/10/23 06:10:22;;;;;;;5.75;2.78;;;;;;;;;;5074591;28;20045;-69
2022/10/23 06:12:48;;;;;;;6.70;3.33;;;;;;;;;;5075697;28;20140;-69
2022/10/23 06:15:14;;;;;;;8.50;3.65;;;;;;;;;;5074298;28;20129;-69
2022/10/23 06:17:40;;;;;;;8.02;2.95;;;;;;;;;;5074379;28;20576;-69
2022/10/23 06:20:07;;;;;;;8.10;3.25;;;;;;;;;;5075511;28;20041;-69
2022/10/23 06:22:33;;;;;;;4.57;2.75;;;;;;;;;;5068286;28;20044;-69
2022/10/23 06:24:59;;;;;;;12.30;3.42;;;;;;;;;;5076852;28;20118;-69
2022/10/23 06:27:25;;;;;;;6.40;3.88;;;;;;;;;;5078451;28;20050;-69
2022/10/23 06:29:51;;;;;;;6.72;2.67;;;;;;;;;;5077941;28;20446;-69
2022/10/23 06:32:18;;;;;;;5.70;3.30;;;;;;;;;;5063697;28;20058;-69
2022/10/23 06:34:44;;;;;;;10.43;2.88;;;;;;;;;;5055540;28;20037;-69
2022/10/23 06:37:10;;;;;;;10.75;3.58;;;;;;;;;;5057246;28;20160;-69
2022/10/23 06:39:39;;;;;;;5.78;3.00;;;;;;;;;;5033108;28;21290;-69
2022/10/23 06:42:05;;;;;;;6.93;3.25;;;;;;;;;;5054436;28;20065;-69
2022/10/23 06:44:31;;;;;;;6.22;3.17;;;;;;;;;;5036138;28;20041;-69
2022/10/23 06:46:59;;;;;;;8.05;3.67;;;;;;;;;;5058153;28;20808;-70
2022/10/23 06:49:25;;;;;;;6.50;3.17;;;;;;;;;;5052924;28;20049;-70
2022/10/23 06:51:51;;;;;;;10.20;4.13;;;;;;;;;;5057991;28;20124;-69
2022/10/23 06:54:17;;;;;;;7.32;3.70;;;;;;;;;;5055103;28;20037;-74
2022/10/23 06:56:43;;;;;;;9.52;4.03;;;;;;;;;;5052251;28;20029;-68
2022/10/23 06:59:09;;;;;;;7.47;3.47;;;;;;;;;;5053753;28;20099;-68
2022/10/23 07:01:36;;;;;;;6.30;4.40;;;;;;;;;;5052696;28;20044;-68
2022/10/23 07:04:02;;;;;;;9.25;4.47;;;;;;;;;;5053753;28;20068;-69
2022/10/23 07:06:28;;;;;;;8.25;4.10;;;;;;;;;;5056272;28;20037;-69
2022/10/23 07:08:54;;;;;;;9.32;3.97;;;;;;;;;;5058178;28;20041;-69
2022/10/23 07:11:20;;;;;;;7.15;4.00;;;;;;;;;;5057604;28;20094;-69
2022/10/23 07:13:46;;;;;;;7.38;3.45;;;;;;;;;;5052550;28;20142;-69
2022/10/23 07:16:14;;;;;;;6.28;3.40;;;;;;;;;;5057198;28;20037;-68
2022/10/23 07:18:40;;;;;;;6.85;3.35;;;;;;;;;;5054475;28;20041;-69
2022/10/23 07:21:06;;;;;;;6.80;3.45;;;;;;;;;;5056019;28;20056;-69
2022/10/23 07:23:32;;;;;;;8.75;3.15;;;;;;;;;;5044649;28;20116;-69
2022/10/23 07:26:15;;;;;;;6.10;3.75;;;;;;;;;;5055805;28;20037;-68
2022/10/23 07:28:42;;;;;;;8.15;3.35;;;;;;;;;;5051115;28;20566;-67
2022/10/23 07:31:09;;;;;;;6.97;3.17;;;;;;;;;;5056802;28;20048;-68
2022/10/23 07:33:35;;;;;;;4.88;3.20;;;;;;;;;;5075252;28;20044;-68
2022/10/23 07:36:04;;;;;;;5.00;2.90;;;;;;;;;;5073435;28;20637;-68
2022/10/23 07:38:30;;;;;;;7.10;3.72;;;;;;;;;;5073502;28;20094;-68
2022/10/23 07:40:58;;;;;;;6.65;4.13;;;;;;;;;;5075068;28;20088;-69
2022/10/23 07:43:24;;;;;;;8.38;3.95;;;;;;;;;;5067476;28;20515;-70
2022/10/23 07:45:51;;;;;;;4.53;3.15;;;;;;;;;;5075155;28;20036;-68
2022/10/23 07:48:17;;;;;;;6.82;3.05;;;;;;;;;;5078569;28;20053;-69
2022/10/23 07:50:44;;;;;;;5.20;3.22;;;;;;;;;;5074418;28;20190;-69
2022/10/23 07:53:17;;;;;;;5.28;3.00;;;;;;;;;;5075163;28;20166;-68
2022/10/23 07:55:44;;;;;;;8.55;2.80;;;;;;;;;;5075164;28;20096;-68
2022/10/23 07:58:10;;;;;;;7.20;2.70;;;;;;;;;;5067027;28;20052;-69
2022/10/23 08:00:38;;;;;;;7.13;3.03;;;;;;;;;;5069636;28;20057;-69
2022/10/23 08:03:04;;;;;;;8.18;2.97;;;;;;;;;;5075634;28;20051;-69
2022/10/23 08:05:30;;;;;;;8.80;2.88;;;;;;;;;;5070139;28;20044;-68
2022/10/23 08:07:56;;;;;;;6.82;2.85;;;;;;;;;;5071541;28;20036;-69
2022/10/23 08:10:22;;;;;;;6.95;2.65;;;;;;;;;;5075016;28;20069;-69
2022/10/23 08:12:48;;;;;;;6.35;3.60;;;;;;;;;;5071607;28;20041;-69
2022/10/23 08:15:14;;;;;;;3.85;2.45;;;;;;;;;;5069508;28;20037;-70
2022/10/23 08:17:40;;;;;;;6.75;3.00;;;;;;;;;;5070194;28;20079;-69
2022/10/23 08:20:07;;;;;;;8.20;3.03;;;;;;;;;;5069190;28;20056;-71
2022/10/23 08:22:35;;;;;;;5.90;2.90;;;;;;;;;;5069698;28;20044;-72
2022/10/23 08:25:04;;;;;;;5.80;3.00;;;;;;;;;;5069450;28;20111;-68
2022/10/23 08:27:30;;;;;;;9.52;3.47;;;;;;;;;;5073236;28;20036;-73
2022/10/23 08:29:56;;;;;;;5.88;2.80;;;;;;;;;;5064786;28;20142;-69
2022/10/23 08:32:22;;;;;;;5.15;2.75;;;;;;;;;;5072681;28;20057;-69
2022/10/23 08:34:48;;;;;;;7.15;2.85;;;;;;;;;;5072458;28;20071;-69
2022/10/23 08:37:15;;;;;;;7.05;3.20;;;;;;;;;;5070215;28;20037;-70
2022/10/23 08:39:41;;;;;;;6.00;2.33;;;;;;;;;;5071119;28;20051;-74
2022/10/23 08:42:16;;;;;;;7.07;2.83;;;;;;;;;;5074436;28;20037;-71
2022/10/23 08:44:47;;;;;;;4.03;2.35;;;;;;;;;;5077071;28;20044;-69
2022/10/23 08:47:28;;;;;;;5.13;2.42;;;;;;;;;;5074244;28;20102;-72
2022/10/23 08:50:13;;;;;;;7.50;2.33;;;;;;;;;;5071079;28;20917;-70
2022/10/23 08:52:40;;;;;;;4.78;2.47;;;;;;;;;;5075923;28;20037;-69
2022/10/23 08:55:21;;;;;;;8.57;2.95;;;;;;;;;;5077047;28;20051;-70
2022/10/23 08:57:51;;;;;;;6.43;2.50;;;;;;;;;;5058724;28;20083;-71
2022/10/23 09:00:18;;;;;;;7.32;3.17;;;;;;;;;;5076014;28;20055;-71
2022/10/23 09:02:51;;;;;;;6.18;2.72;;;;;;;;;;5061140;28;20190;-71
2022/10/23 09:05:17;;;;;;;6.63;2.33;;;;;;;;;;5078910;28;20044;-70
2022/10/23 09:07:52;;;;;;;4.00;1.95;;;;;;;;;;5076359;28;20050;-70
2022/10/23 09:10:24;;;;;;;5.97;2.50;;;;;;;;;;5070974;28;20450;-69
2022/10/23 09:12:51;;;;;;;6.25;2.38;;;;;;;;;;5077771;28;20501;-69
2022/10/23 09:15:23;;;;;;;4.90;2.53;;;;;;;;;;5076235;28;20056;-70
2022/10/23 09:17:53;;;;;;;7.80;2.63;;;;;;;;;;5076722;28;20094;-69
2022/10/23 09:20:24;;;;;;;8.88;3.17;;;;;;;;;;5077950;28;20044;-70
2022/10/23 09:23:00;;;;;;;7.38;2.72;;;;;;;;;;5077304;28;20068;-70
2022/10/23 09:25:31;;;;;;;7.28;2.60;;;;;;;;;;5058815;28;20036;-70
2022/10/23 09:27:59;;;;;;;5.70;3.08;;;;;;;;;;5077758;28;20052;-70
2022/10/23 09:30:41;;;;;;;4.10;2.70;;;;;;;;;;5072902;28;20072;-70
2022/10/23 09:33:07;;;;;;;;;;;;;;;;;;5078401;28;20052;-70
2022/10/23 09:35:33;;;;;;;4.50;2.25;;;;;;;;;;5075823;28;20420;-70
2022/10/23 09:37:59;;;;;;;6.63;2.67;;;;;;;;;;5074083;28;20079;-70
2022/10/23 09:40:37;;;;;;;7.13;2.03;;;;;;;;;;5076884;28;20033;-70
2022/10/23 09:43:13;;;;;;;7.35;2.83;;;;;;;;;;5074529;28;20044;-70
2022/10/23 09:45:41;;;;;;;6.15;2.03;;;;;;;;;;5073295;28;20079;-70
2022/10/23 09:48:15;;;;;;;8.15;2.40;;;;;;;;;;5075612;28;20051;-70
2022/10/23 09:50:48;;;;;;;7.70;3.70;;;;;;;;;;5057770;28;22175;-69
2022/10/23 09:53:20;;;;;;;7.20;2.17;;;;;;;;;;5072770;28;20033;-70
2022/10/23 09:55:51;;;;;;;4.25;2.30;;;;;;;;;;5074143;28;20044;-70
2022/10/23 09:58:34;;;;;;;8.75;3.05;;;;;;;;;;5077014;28;20531;-69
2022/10/23 10:01:00;;;;;;;4.78;1.77;;;;;;;;;;5074870;28;20040;-72
2022/10/23 10:03:26;;;;;;;8.45;2.45;;;;;;;;;;5074410;28;20067;-73
2022/10/23 10:05:54;;;;;;;7.43;2.58;;;;;;;;;;5057801;28;20037;-69
2022/10/23 10:08:20;;;;;;;4.55;2.30;;;;;;;;;;5065701;28;20052;-70
2022/10/23 10:11:26;;;;;;;7.15;2.22;;;;;;;;;;5077422;28;20094;-70
2022/10/23 10:13:55;;;;;;;4.72;2.03;;;;;;;;;;4995054;28;20114;-70
2022/10/23 10:16:33;;;;;;;5.78;2.70;;;;;;;;;;4989925;28;20881;-70
2022/10/23 10:19:05;;;;;;;6.05;2.55;;;;;;;;;;5047832;28;20133;-70
2022/10/23 10:21:44;;;;;;;4.93;2.55;;;;;;;;;;5072781;28;20131;-70
2022/10/23 10:24:17;;;;;;;6.70;2.15;;;;;;;;;;5051504;28;20075;-69
2022/10/23 10:27:03;;;;;;;7.05;2.50;;;;;;;;;;5058913;28;20045;-70
2022/10/23 10:29:32;;;;;;;2.95;1.98;;;;;;;;;;5075516;28;20648;-70
2022/10/23 10:32:17;;;;;;;7.45;2.80;;;;;;;;;;5077647;28;20060;-70
2022/10/23 10:35:02;;;;;;;5.43;2.20;;;;;;;;;;5075793;28;20116;-70
2022/10/23 10:37:40;;;;;;;5.97;2.28;;;;;;;;;;5075762;28;20581;-70
2022/10/23 10:40:29;;;;;;;6.22;2.00;;;;;;;;;;5077295;28;20072;-70
2022/10/23 10:43:05;;;;;;;6.78;2.58;;;;;;;;;;5034230;28;20103;-70
2022/10/23 10:45:38;;;;;;;10.82;2.78;;;;;;;;;;5073723;28;20041;-70
2022/10/23 10:48:22;;;;;;;5.13;1.75;;;;;;;;;;5075657;28;20041;-70
2022/10/23 10:50:51;;;;;;;5.50;2.85;;;;;;;;;;5072843;28;20040;-69
2022/10/23 10:53:20;;;;;;;6.40;2.65;;;;;;;;;;5072474;28;20048;-69
2022/10/23 10:55:49;;;;;;;7.28;2.10;;;;;;;;;;5075708;28;20052;-70
2022/10/23 10:58:15;;;;;;;3.38;1.88;;;;;;;;;;5068817;28;20033;-70
2022/10/23 11:00:46;;;;;;;5.43;2.10;;;;;;;;;;5074106;28;20036;-76
2022/10/23 11:03:36;;;;;;;6.07;2.65;;;;;;;;;;5077989;28;20041;-79
2022/10/23 11:06:04;;;;;;;8.63;2.90;;;;;;;;;;5071895;28;20048;-70
2022/10/23 11:08:34;;;;;;;4.00;1.90;;;;;;;;;;5071317;28;20056;-72
2022/10/23 11:11:03;;;;;;;4.68;2.20;;;;;;;;;;5074646;28;20064;-71
2022/10/23 11:13:41;;;;;;;11.25;2.75;;;;;;;;;;5050188;28;20134;-71
2022/10/23 11:16:13;;;;;;;11.50;3.92;;;;;;;;;;5068299;28;20094;-70
2022/10/23 11:18:39;;;;;;;;;;;;;;;;;;5068564;28;20125;-72
2022/10/23 11:21:31;;;;;;;3.60;2.13;;;;;;;;;;5075847;28;21154;-71
2022/10/23 11:23:57;;;;;;;6.13;2.13;;;;;;;;;;5070890;28;20892;-72
2022/10/23 11:27:01;;;;;;;4.75;2.55;;;;;;;;;;5049550;28;20102;-74
2022/10/23 11:30:03;;;;;;;8.77;2.55;;;;;;;;;;5045153;28;20066;-71
2022/10/23 11:32:42;;;;;;;6.15;2.58;;;;;;;;;;5011866;28;20607;-71
2022/10/23 11:35:29;;;;;;;4.60;1.83;;;;;;;;;;5052162;28;20104;-74
2022/10/23 11:38:14;;;;;;;6.00;2.45;;;;;;;;;;5073849;28;20783;-70
2022/10/23 11:40:44;;;;;;;5.82;2.40;;;;;;;;;;5076345;28;20044;-70
2022/10/23 11:43:11;;;;;;;6.30;3.05;;;;;;;;;;5072661;28;20415;-70
2022/10/23 11:45:38;;;;;;;5.78;2.10;;;;;;;;;;5057852;28;20040;-71
2022/10/23 11:48:04;;;;;;;4.90;2.17;;;;;;;;;;5062796;28;20040;-70
2022/10/23 11:50:30;;;;;;;5.05;2.15;;;;;;;;;;5071681;28;20102;-70
2022/10/23 11:52:56;;;;;;;6.10;2.20;;;;;;;;;;5070776;28;20050;-70
2022/10/23 11:55:27;;;;;;;6.22;2.78;;;;;;;;;;5043818;28;20071;-70
2022/10/23 11:58:11;;;;;;;2.90;1.73;;;;;;;;;;5067801;28;20474;-70
2022/10/23 12:00:51;;;;;;;9.43;2.22;;;;;;;;;;5044149;28;20028;-70
2022/10/23 12:03:20;;;;;;;4.38;1.65;;;;;;;;;;5057470;28;20047;-70
2022/10/23 12:05:46;;;;;;;7.78;2.50;;;;;;;;;;5061776;28;20048;-70
2022/10/23 12:08:23;;;;;;;5.25;1.90;;;;;;;;;;5071275;28;21673;-70
2022/10/23 12:10:54;;;;;;;3.47;1.98;;;;;;;;;;5069108;28;20557;-70
2022/10/23 12:13:38;;;;;;;4.32;2.58;;;;;;;;;;5070029;28;20033;-70
2022/10/23 12:16:08;;;;;;;3.58;1.70;;;;;;;;;;5061193;28;20515;-70
2022/10/23 12:18:44;;;;;;;3.05;1.75;;;;;;;;;;5074657;28;20127;-70
2022/10/23 12:21:18;;;;;;;4.10;2.30;;;;;;;;;;5075666;28;20040;-70
2022/10/23 12:23:53;;;;;;;8.02;2.20;;;;;;;;;;5051499;28;20055;-71
2022/10/23 12:26:31;;;;;;;4.15;2.38;;;;;;;;;;5074269;28;20141;-70
2022/10/23 12:29:04;;;;;;;4.70;2.05;;;;;;;;;;5074930;28;20072;-69
2022/10/23 12:31:30;;;;;;;4.55;2.13;;;;;;;;;;5056421;28;20063;-69
2022/10/23 12:34:00;;;;;;;5.10;2.25;;;;;;;;;;5077457;28;20044;-70
2022/10/23 12:36:32;;;;;;;3.05;2.17;;;;;;;;;;5071533;28;20041;-70
2022/10/23 12:38:58;;;;;;;3.17;2.00;;;;;;;;;;5075959;28;20044;-69
2022/10/23 12:41:25;;;;;;;4.20;1.98;;;;;;;;;;5074620;28;20040;-69
2022/10/23 12:43:56;;;;;;;4.57;1.80;;;;;;;;;;5077097;28;20120;-69
2022/10/23 12:46:30;;;;;;;4.75;2.50;;;;;;;;;;5076246;28;20072;-72
2022/10/23 12:48:57;;;;;;;4.07;1.85;;;;;;;;;;5056901;28;20047;-70
2022/10/23 12:51:27;;;;;;;6.13;2.53;;;;;;;;;;5055865;28;20075;-70
2022/10/23 12:53:53;;;;;;;2.80;1.80;;;;;;;;;;5056202;28;20052;-70
2022/10/23 12:56:20;;;;;;;3.38;1.50;;;;;;;;;;5086487;27;20044;-70
2022/10/23 12:58:50;;;;;;;6.38;2.03;;;;;;;;;;5068680;28;20040;-70
2022/10/23 13:01:27;;;;;;;2.75;1.50;;;;;;;;;;5069945;28;20068;-70
2022/10/23 13:04:04;;;;;;;4.40;1.70;;;;;;;;;;5072180;28;20128;-70
2022/10/23 13:06:31;;;;;;;3.95;1.52;;;;;;;;;;5070722;28;20057;-70
2022/10/23 13:08:57;;;;;;;5.95;1.58;;;;;;;;;;5053794;28;20134;-70
2022/10/23 13:11:24;;;;;;;8.85;2.10;;;;;;;;;;5075029;28;20048;-70
2022/10/23 13:13:50;;;;;;;3.83;1.88;;;;;;;;;;5052666;28;20052;-70
2022/10/23 13:16:18;;;;;;;8.57;1.95;;;;;;;;;;5073404;28;20052;-70
2022/10/23 13:18:44;;;;;;;7.47;2.65;;;;;;;;;;5072690;28;20086;-69
2022/10/23 13:21:16;;;;;;;4.80;1.95;;;;;;;;;;5073104;28;20054;-70
2022/10/23 13:23:42;;;;;;;6.03;1.85;;;;;;;;;;5052366;28;20049;-70
2022/10/23 13:26:21;;;;;;;4.00;2.20;;;;;;;;;;5071735;28;20068;-70
2022/10/23 13:28:47;;;;;;;3.65;1.35;;;;;;;;;;5054356;28;20040;-70
2022/10/23 13:31:13;;;;;;;3.72;1.95;;;;;;;;;;5070817;28;20059;-70
2022/10/23 13:33:40;;;;;;;9.32;2.85;;;;;;;;;;5073179;28;20040;-69
2022/10/23 13:36:12;;;;;;;10.13;2.10;;;;;;;;;;5073781;28;21042;-70
2022/10/23 13:38:59;;;;;;;8.15;3.22;;;;;;;;;;5053071;28;20436;-70
2022/10/23 13:41:26;;;;;;;4.78;2.65;;;;;;;;;;5070700;28;20068;-70
2022/10/23 13:43:53;;;;;;;5.60;1.83;;;;;;;;;;5052021;28;20041;-70
2022/10/23 13:46:23;;;;;;;5.82;1.75;;;;;;;;;;5070498;28;20072;-70
2022/10/23 13:48:49;;;;;;;6.40;1.95;;;;;;;;;;5047249;28;20072;-71
2022/10/23 13:51:15;;;;;;;4.85;1.95;;;;;;;;;;5056748;28;20090;-69
2022/10/23 13:53:41;;;;;;;13.50;2.50;;;;;;;;;;5052880;28;20040;-72
2022/10/23 13:56:10;;;;;;;2.03;1.08;;;;;;;;;;5083946;28;20045;-74
2022/10/23 13:58:36;;;;;;;5.18;1.30;;;;;;;;;;5067482;28;20060;-73
2022/10/23 14:01:02;;;;;;;3.70;1.20;;;;;;;;;;5047249;28;20056;-71
2022/10/23 14:03:28;;;;;;;3.80;1.45;;;;;;;;;;5053903;28;20082;-70
2022/10/23 14:05:54;;;;;;;6.68;1.90;;;;;;;;;;5069640;28;20056;-70
2022/10/23 14:08:20;;;;;;;5.97;1.13;;;;;;;;;;5070467;28;20152;-71
2022/10/23 14:10:46;;;;;;;5.60;1.90;;;;;;;;;;5044979;28;20596;-71
2022/10/23 14:13:12;;;;;;;2.65;1.02;;;;;;;;;;5070065;28;20056;-71
2022/10/23 14:15:39;;;;;;;4.40;1.45;;;;;;;;;;5049662;28;20055;-70
2022/10/23 14:18:05;;;;;;;4.18;1.05;;;;;;;;;;5072173;28;20627;-70
2022/10/23 14:20:31;;;;;;;4.40;1.17;;;;;;;;;;5067262;28;20586;-71
2022/10/23 14:22:57;;;;;;;4.78;1.33;;;;;;;;;;5070287;28;20036;-70
2022/10/23 14:25:23;;;;;;;1.95;1.30;;;;;;;;;;5073362;28;20045;-70
2022/10/23 14:27:49;;;;;;;3.60;1.08;;;;;;;;;;5074427;28;20820;-70
2022/10/23 14:30:15;;;;;;;1.40;0.77;;;;;;;;;;5046052;28;20044;-71
2022/10/23 14:32:42;;;;;;;3.60;0.98;;;;;;;;;;5073559;28;20049;-71
2022/10/23 14:35:08;;;;;;;1.20;0.57;;;;;;;;;;5073531;28;20051;-71
2022/10/23 14:37:35;;;;;;;1.65;0.85;;;;;;;;;;5050238;28;20135;-74
2022/10/23 14:40:01;;;;;;;5.82;0.90;;;;;;;;;;5072878;28;20040;-71
2022/10/23 14:42:32;;;;;;;5.18;1.30;;;;;;;;;;5071068;28;20045;-70
2022/10/23 14:44:59;;;;;;;1.60;0.82;;;;;;;;;;5052828;28;20521;-71
2022/10/23 14:47:25;;;;;;;4.15;1.20;;;;;;;;;;5049233;28;20078;-70
2022/10/23 14:49:52;;;;;;;1.92;0.80;;;;;;;;;;5056714;28;20128;-71
2022/10/23 14:52:18;;;;;;;4.05;0.85;;;;;;;;;;5048341;28;20040;-72
2022/10/23 14:54:44;;;;;;;4.55;1.25;;;;;;;;;;5073056;28;20901;-71
2022/10/23 14:57:14;;;;;;;2.92;1.02;;;;;;;;;;5069172;28;20171;-71